sensor_id;sensor_type;location;lat;lon;timestamp;pressure;altitude;pressure_sealevel;temperature;humidity
6090;BME280;3073;42.660;23.316;2023-02-12T00:01:51;95449.50;;;1.89;48.88
6090;BME280;3073;42.660;23.316;2023-02-12T00:04:18;95442.44;;;1.92;48.58
6090;BME280;3073;42.660;23.316;2023-02-12T00:06:44;95441.78;;;1.90;48.30
6090;BME280;3073;42.660;23.316;2023-02-12T00:09:11;95441.16;;;1.96;48.73
6090;BME280;3073;42.660;23.316;2023-02-12T00:11:38;95446.97;;;1.97;48.71
6090;BME280;3073;42.660;23.316;2023-02-12T00:14:05;95448.06;;;1.94;48.46
6090;BME280;3073;42.660;23.316;2023-02-12T00:16:32;95446.34;;;2.03;48.07
6090;BME280;3073;42.660;23.316;2023-02-12T00:19:00;95455.47;;;1.88;48.27
6090;BME280;3073;42.660;23.316;2023-02-12T00:21:27;95455.81;;;1.93;48.00
6090;BME280;3073;42.660;23.316;2023-02-12T00:23:54;95464.28;;;1.84;47.96
6090;BME280;3073;42.660;23.316;2023-02-12T00:26:22;95464.13;;;1.85;47.63
6090;BME280;3073;42.660;23.316;2023-02-12T00:28:49;95456.41;;;1.87;47.89
6090;BME280;3073;42.660;23.316;2023-02-12T00:31:18;95462.72;;;1.99;48.65
6090;BME280;3073;42.660;23.316;2023-02-12T00:33:46;95452.31;;;1.94;48.51
6090;BME280;3073;42.660;23.316;2023-02-12T00:36:15;95446.22;;;1.96;48.73
6090;BME280;3073;42.660;23.316;2023-02-12T00:38:42;95442.44;;;1.84;48.04
6090;BME280;3073;42.660;23.316;2023-02-12T00:41:10;95430.63;;;1.85;48.87
6090;BME280;3073;42.660;23.316;2023-02-12T00:43:36;95420.25;;;1.88;48.94
6090;BME280;3073;42.660;23.316;2023-02-12T00:46:03;95416.00;;;1.88;48.97
6090;BME280;3073;42.660;23.316;2023-02-12T00:48:31;95412.72;;;1.64;48.83
6090;BME280;3073;42.660;23.316;2023-02-12T00:50:58;95420.91;;;1.82;48.79
6090;BME280;3073;42.660;23.316;2023-02-12T00:53:26;95413.50;;;1.88;48.50
6090;BME280;3073;42.660;23.316;2023-02-12T00:55:53;95408.47;;;1.80;48.57
6090;BME280;3073;42.660;23.316;2023-02-12T00:58:20;95414.13;;;1.82;48.76
6090;BME280;3073;42.660;23.316;2023-02-12T01:00:47;95412.88;;;1.86;48.15
6090;BME280;3073;42.660;23.316;2023-02-12T01:03:14;95409.75;;;1.76;48.43
6090;BME280;3073;42.660;23.316;2023-02-12T01:05:42;95399.50;;;1.86;48.82
6090;BME280;3073;42.660;23.316;2023-02-12T01:08:11;95398.25;;;1.82;48.63
6090;BME280;3073;42.660;23.316;2023-02-12T01:10:40;95395.28;;;1.86;48.10
6090;BME280;3073;42.660;23.316;2023-02-12T01:13:09;95407.81;;;2.02;48.47
6090;BME280;3073;42.660;23.316;2023-02-12T01:15:37;95404.22;;;1.89;48.56
6090;BME280;3073;42.660;23.316;2023-02-12T01:18:04;95406.72;;;1.97;48.41
6090;BME280;3073;42.660;23.316;2023-02-12T01:20:31;95410.66;;;1.99;48.75
6090;BME280;3073;42.660;23.316;2023-02-12T01:22:57;95406.88;;;1.95;48.68
6090;BME280;3073;42.660;23.316;2023-02-12T01:25:26;95418.69;;;1.87;49.06
6090;BME280;3073;42.660;23.316;2023-02-12T01:27:54;95414.44;;;1.95;48.58
6090;BME280;3073;42.660;23.316;2023-02-12T01:30:21;95428.59;;;1.80;49.35
6090;BME280;3073;42.660;23.316;2023-02-12T01:32:49;95440.88;;;1.83;48.94
6090;BME280;3073;42.660;23.316;2023-02-12T01:35:16;95425.47;;;1.86;49.69
6090;BME280;3073;42.660;23.316;2023-02-12T01:37:43;95427.16;;;1.94;49.90
6090;BME280;3073;42.660;23.316;2023-02-12T01:40:14;95421.97;;;1.95;49.85
6090;BME280;3073;42.660;23.316;2023-02-12T01:42:42;95413.66;;;1.87;49.99
6090;BME280;3073;42.660;23.316;2023-02-12T01:45:44;95408.31;;;1.82;49.96
6090;BME280;3073;42.660;23.316;2023-02-12T01:48:12;95408.00;;;1.85;49.84
6090;BME280;3073;42.660;23.316;2023-02-12T01:50:42;95403.28;;;1.82;50.37
6090;BME280;3073;42.660;23.316;2023-02-12T01:53:09;95398.75;;;1.69;50.49
6090;BME280;3073;42.660;23.316;2023-02-12T01:55:38;95389.78;;;1.75;50.47
6090;BME280;3073;42.660;23.316;2023-02-12T01:58:06;95394.50;;;1.70;50.97
6090;BME280;3073;42.660;23.316;2023-02-12T02:00:35;95398.91;;;1.68;50.88
6090;BME280;3073;42.660;23.316;2023-02-12T02:03:03;95389.81;;;1.67;51.20
6090;BME280;3073;42.660;23.316;2023-02-12T02:05:34;95385.81;;;1.80;50.87
6090;BME280;3073;42.660;23.316;2023-02-12T02:08:04;95383.66;;;1.61;51.66
6090;BME280;3073;42.660;23.316;2023-02-12T02:10:31;95390.72;;;1.58;51.69
6090;BME280;3073;42.660;23.316;2023-02-12T02:12:58;95392.63;;;1.47;51.52
6090;BME280;3073;42.660;23.316;2023-02-12T02:15:46;95401.09;;;1.54;51.54
6090;BME280;3073;42.660;23.316;2023-02-12T02:18:20;95398.75;;;1.45;51.70
6090;BME280;3073;42.660;23.316;2023-02-12T02:24:07;95405.66;;;1.51;52.30
6090;BME280;3073;42.660;23.316;2023-02-12T02:27:05;95401.88;;;1.47;52.31
6090;BME280;3073;42.660;23.316;2023-02-12T02:30:13;95392.16;;;1.44;52.31
6090;BME280;3073;42.660;23.316;2023-02-12T02:32:49;95387.63;;;1.39;52.95
6090;BME280;3073;42.660;23.316;2023-02-12T02:35:25;95386.34;;;1.51;52.59
6090;BME280;3073;42.660;23.316;2023-02-12T02:38:02;95393.59;;;1.46;53.72
6090;BME280;3073;42.660;23.316;2023-02-12T02:40:38;95382.75;;;1.46;52.76
6090;BME280;3073;42.660;23.316;2023-02-12T02:43:08;95380.22;;;1.46;54.09
6090;BME280;3073;42.660;23.316;2023-02-12T02:45:41;95385.41;;;1.52;53.48
6090;BME280;3073;42.660;23.316;2023-02-12T02:48:12;95384.63;;;1.52;53.86
6090;BME280;3073;42.660;23.316;2023-02-12T02:50:41;95398.63;;;1.46;54.25
6090;BME280;3073;42.660;23.316;2023-02-12T02:53:13;95385.41;;;1.52;54.59
6090;BME280;3073;42.660;23.316;2023-02-12T02:55:44;95380.34;;;1.61;54.35
6090;BME280;3073;42.660;23.316;2023-02-12T02:58:15;95385.06;;;1.64;55.05
6090;BME280;3073;42.660;23.316;2023-02-12T03:00:47;95385.06;;;1.64;54.98
6090;BME280;3073;42.660;23.316;2023-02-12T03:03:23;95388.06;;;1.59;55.29
6090;BME280;3073;42.660;23.316;2023-02-12T03:05:55;95394.50;;;1.62;55.11
6090;BME280;3073;42.660;23.316;2023-02-12T03:08:28;95392.00;;;1.70;54.99
6090;BME280;3073;42.660;23.316;2023-02-12T03:11:02;95394.19;;;1.73;55.12
6090;BME280;3073;42.660;23.316;2023-02-12T03:13:33;95396.63;;;1.97;54.70
6090;BME280;3073;42.660;23.316;2023-02-12T03:16:08;95390.09;;;1.80;54.91
6090;BME280;3073;42.660;23.316;2023-02-12T03:18:41;95397.47;;;1.89;55.45
6090;BME280;3073;42.660;23.316;2023-02-12T03:21:13;95386.75;;;1.87;55.29
6090;BME280;3073;42.660;23.316;2023-02-12T03:23:46;95389.91;;;1.81;55.46
6090;BME280;3073;42.660;23.316;2023-02-12T03:26:20;95382.38;;;1.81;55.29
6090;BME280;3073;42.660;23.316;2023-02-12T03:28:48;95385.81;;;1.80;55.51
6090;BME280;3073;42.660;23.316;2023-02-12T03:31:23;95385.97;;;1.87;55.72
6090;BME280;3073;42.660;23.316;2023-02-12T03:34:03;95391.03;;;1.79;55.62
6090;BME280;3073;42.660;23.316;2023-02-12T03:36:37;95382.53;;;1.88;55.58
6090;BME280;3073;42.660;23.316;2023-02-12T03:39:10;95388.47;;;1.95;55.49
6090;BME280;3073;42.660;23.316;2023-02-12T03:41:42;95385.97;;;1.87;56.15
6090;BME280;3073;42.660;23.316;2023-02-12T03:44:17;95391.19;;;1.93;56.11
6090;BME280;3073;42.660;23.316;2023-02-12T03:46:56;95389.75;;;1.91;55.82
6090;BME280;3073;42.660;23.316;2023-02-12T03:49:28;95392.53;;;2.04;55.79
6090;BME280;3073;42.660;23.316;2023-02-12T03:51:58;95377.63;;;1.94;56.56
6090;BME280;3073;42.660;23.316;2023-02-12T03:54:25;95383.91;;;1.98;56.75
6090;BME280;3073;42.660;23.316;2023-02-12T03:56:55;95392.41;;;1.97;56.90
6090;BME280;3073;42.660;23.316;2023-02-12T03:59:24;95387.88;;;1.85;57.01
6090;BME280;3073;42.660;23.316;2023-02-12T04:01:53;95389.91;;;1.89;57.32
6090;BME280;3073;42.660;23.316;2023-02-12T04:04:22;95386.31;;;1.76;57.84
6090;BME280;3073;42.660;23.316;2023-02-12T04:06:50;95379.38;;;1.78;58.03
6090;BME280;3073;42.660;23.316;2023-02-12T04:09:20;95379.06;;;1.81;57.84
6090;BME280;3073;42.660;23.316;2023-02-12T04:12:08;95384.09;;;1.81;58.13
6090;BME280;3073;42.660;23.316;2023-02-12T04:14:43;95380.78;;;1.80;58.48
6090;BME280;3073;42.660;23.316;2023-02-12T04:17:19;95387.59;;;1.72;59.36
6090;BME280;3073;42.660;23.316;2023-02-12T04:19:56;95392.59;;;1.72;59.36
6090;BME280;3073;42.660;23.316;2023-02-12T04:22:38;95392.94;;;1.69;59.58
6090;BME280;3073;42.660;23.316;2023-02-12T04:25:17;95401.75;;;1.57;60.38
6090;BME280;3073;42.660;23.316;2023-02-12T04:27:50;95394.03;;;1.58;59.84
6090;BME280;3073;42.660;23.316;2023-02-12T04:30:25;95401.28;;;1.45;61.00
6090;BME280;3073;42.660;23.316;2023-02-12T04:32:59;95396.41;;;1.43;61.06
6090;BME280;3073;42.660;23.316;2023-02-12T04:35:31;95404.41;;;1.47;61.56
6090;BME280;3073;42.660;23.316;2023-02-12T04:38:04;95396.72;;;1.57;61.38
6090;BME280;3073;42.660;23.316;2023-02-12T04:40:33;95404.09;;;1.58;60.81
6090;BME280;3073;42.660;23.316;2023-02-12T04:43:00;95401.09;;;1.54;61.40
6090;BME280;3073;42.660;23.316;2023-02-12T04:45:30;95412.88;;;1.54;61.87
6090;BME280;3073;42.660;23.316;2023-02-12T04:47:59;95416.84;;;1.48;61.51
6090;BME280;3073;42.660;23.316;2023-02-12T04:50:30;95418.72;;;1.46;61.64
6090;BME280;3073;42.660;23.316;2023-02-12T04:53:02;95419.97;;;1.34;62.94
6090;BME280;3073;42.660;23.316;2023-02-12T04:55:29;95422.97;;;1.30;62.13
6090;BME280;3073;42.660;23.316;2023-02-12T04:57:55;95421.53;;;1.35;63.00
6090;BME280;3073;42.660;23.316;2023-02-12T05:00:22;95421.22;;;1.30;62.69
6090;BME280;3073;42.660;23.316;2023-02-12T05:02:49;95422.97;;;1.30;63.30
6090;BME280;3073;42.660;23.316;2023-02-12T05:05:17;95419.47;;;1.15;63.37
6090;BME280;3073;42.660;23.316;2023-02-12T05:07:44;95422.16;;;1.13;63.50
6090;BME280;3073;42.660;23.316;2023-02-12T05:10:11;95422.16;;;1.29;64.12
6090;BME280;3073;42.660;23.316;2023-02-12T05:12:38;95421.84;;;1.24;63.05
6090;BME280;3073;42.660;23.316;2023-02-12T05:15:06;95426.25;;;1.22;64.33
6090;BME280;3073;42.660;23.316;2023-02-12T05:17:33;95425.00;;;1.26;63.58
6090;BME280;3073;42.660;23.316;2023-02-12T05:20:00;95432.22;;;1.29;63.75
6090;BME280;3073;42.660;23.316;2023-02-12T05:22:28;95433.78;;;1.30;63.31
6090;BME280;3073;42.660;23.316;2023-02-12T05:24:55;95437.09;;;1.39;63.96
6090;BME280;3073;42.660;23.316;2023-02-12T05:27:22;95447.16;;;1.39;63.13
6090;BME280;3073;42.660;23.316;2023-02-12T05:29:49;95443.88;;;1.46;63.30
6090;BME280;3073;42.660;23.316;2023-02-12T05:32:16;95462.72;;;1.42;64.12
6090;BME280;3073;42.660;23.316;2023-02-12T05:34:42;95464.91;;;1.37;64.69
6090;BME280;3073;42.660;23.316;2023-02-12T05:37:09;95455.31;;;1.33;65.39
6090;BME280;3073;42.660;23.316;2023-02-12T05:39:37;95463.34;;;1.36;66.92
6090;BME280;3073;42.660;23.316;2023-02-12T05:42:04;95465.03;;;1.28;67.29
6090;BME280;3073;42.660;23.316;2023-02-12T05:44:31;95457.03;;;1.16;69.48
6090;BME280;3073;42.660;23.316;2023-02-12T05:46:58;95469.56;;;1.08;73.49
6090;BME280;3073;42.660;23.316;2023-02-12T05:49:25;95474.75;;;1.15;75.95
6090;BME280;3073;42.660;23.316;2023-02-12T05:51:52;95473.00;;;1.07;80.29
6090;BME280;3073;42.660;23.316;2023-02-12T05:54:19;95474.28;;;1.03;83.23
6090;BME280;3073;42.660;23.316;2023-02-12T05:56:47;95473.63;;;0.93;85.73
6090;BME280;3073;42.660;23.316;2023-02-12T05:59:17;95466.84;;;0.93;86.49
6090;BME280;3073;42.660;23.316;2023-02-12T06:01:46;95471.69;;;0.87;88.65
6090;BME280;3073;42.660;23.316;2023-02-12T06:04:15;95468.59;;;0.93;90.83
6090;BME280;3073;42.660;23.316;2023-02-12T06:06:42;95477.53;;;1.03;91.93
6090;BME280;3073;42.660;23.316;2023-02-12T06:09:10;95477.38;;;0.97;97.17
6090;BME280;3073;42.660;23.316;2023-02-12T06:11:37;95478.72;;;0.75;100.00
6090;BME280;3073;42.660;23.316;2023-02-12T06:14:08;95466.78;;;0.77;100.00
6090;BME280;3073;42.660;23.316;2023-02-12T06:16:36;95468.50;;;0.77;100.00
6090;BME280;3073;42.660;23.316;2023-02-12T06:19:04;95468.22;;;0.80;100.00
6090;BME280;3073;42.660;23.316;2023-02-12T06:21:32;95480.50;;;0.91;100.00
6090;BME280;3073;42.660;23.316;2023-02-12T06:23:59;95475.66;;;0.97;100.00
6090;BME280;3073;42.660;23.316;2023-02-12T06:26:26;95478.34;;;0.96;100.00
6090;BME280;3073;42.660;23.316;2023-02-12T06:28:53;95489.31;;;0.95;100.00
6090;BME280;3073;42.660;23.316;2023-02-12T06:31:23;95484.28;;;0.95;100.00
6090;BME280;3073;42.660;23.316;2023-02-12T06:33:51;95477.84;;;0.92;100.00
6090;BME280;3073;42.660;23.316;2023-02-12T06:36:19;95489.44;;;0.93;100.00
6090;BME280;3073;42.660;23.316;2023-02-12T06:38:47;95496.31;;;0.75;100.00
6090;BME280;3073;42.660;23.316;2023-02-12T06:41:14;95507.59;;;0.71;100.00
6090;BME280;3073;42.660;23.316;2023-02-12T06:43:42;95508.97;;;0.66;100.00
6090;BME280;3073;42.660;23.316;2023-02-12T06:46:09;95504.94;;;0.73;100.00
6090;BME280;3073;42.660;23.316;2023-02-12T06:48:40;95499.00;;;0.82;100.00
6090;BME280;3073;42.660;23.316;2023-02-12T06:51:09;95496.06;;;0.61;100.00
6090;BME280;3073;42.660;23.316;2023-02-12T06:53:36;95503.91;;;0.58;100.00
6090;BME280;3073;42.660;23.316;2023-02-12T06:56:05;95500.78;;;0.56;100.00
6090;BME280;3073;42.660;23.316;2023-02-12T06:58:35;95492.03;;;0.68;100.00
6090;BME280;3073;42.660;23.316;2023-02-12T07:01:10;95501.50;;;0.82;100.00
6090;BME280;3073;42.660;23.316;2023-02-12T07:03:39;95504.81;;;0.82;100.00
6090;BME280;3073;42.660;23.316;2023-02-12T07:06:07;95499.69;;;1.00;100.00
6090;BME280;3073;42.660;23.316;2023-02-12T07:08:35;95496.41;;;1.08;100.00
6090;BME280;3073;42.660;23.316;2023-02-12T07:11:02;95497.81;;;1.02;100.00
6090;BME280;3073;42.660;23.316;2023-02-12T07:13:29;95494.88;;;1.23;100.00
6090;BME280;3073;42.660;23.316;2023-02-12T07:15:55;95499.09;;;1.06;100.00
6090;BME280;3073;42.660;23.316;2023-02-12T07:18:22;95492.47;;;1.05;100.00
6090;BME280;3073;42.660;23.316;2023-02-12T07:20:50;95505.09;;;1.21;100.00
6090;BME280;3073;42.660;23.316;2023-02-12T07:23:17;95501.94;;;1.19;100.00
6090;BME280;3073;42.660;23.316;2023-02-12T07:25:53;95497.22;;;1.16;100.00
6090;BME280;3073;42.660;23.316;2023-02-12T07:28:20;95506.69;;;1.38;100.00
6090;BME280;3073;42.660;23.316;2023-02-12T07:30:47;95500.38;;;1.18;100.00
6090;BME280;3073;42.660;23.316;2023-02-12T07:33:14;95500.38;;;1.18;100.00
6090;BME280;3073;42.660;23.316;2023-02-12T07:35:40;95507.91;;;1.10;100.00
6090;BME280;3073;42.660;23.316;2023-02-12T07:38:09;95501.66;;;1.38;100.00
6090;BME280;3073;42.660;23.316;2023-02-12T07:40:35;95509.22;;;1.38;100.00
6090;BME280;3073;42.660;23.316;2023-02-12T07:43:02;95522.28;;;1.50;100.00
6090;BME280;3073;42.660;23.316;2023-02-12T07:45:29;95521.81;;;1.63;100.00
6090;BME280;3073;42.660;23.316;2023-02-12T07:47:55;95522.91;;;1.68;100.00
6090;BME280;3073;42.660;23.316;2023-02-12T07:50:23;95526.38;;;1.59;100.00
6090;BME280;3073;42.660;23.316;2023-02-12T07:52:50;95521.66;;;1.80;100.00
6090;BME280;3073;42.660;23.316;2023-02-12T07:55:18;95518.84;;;1.75;100.00
6090;BME280;3073;42.660;23.316;2023-02-12T07:57:45;95528.75;;;1.77;100.00
6090;BME280;3073;42.660;23.316;2023-02-12T08:00:13;95522.72;;;1.53;100.00
6090;BME280;3073;42.660;23.316;2023-02-12T08:02:41;95527.97;;;1.60;100.00
6090;BME280;3073;42.660;23.316;2023-02-12T08:05:07;95527.94;;;1.68;100.00
6090;BME280;3073;42.660;23.316;2023-02-12T08:07:34;95524.97;;;1.73;100.00
6090;BME280;3073;42.660;23.316;2023-02-12T08:10:02;95535.19;;;1.63;100.00
6090;BME280;3073;42.660;23.316;2023-02-12T08:12:30;95535.03;;;1.81;100.00
6090;BME280;3073;42.660;23.316;2023-02-12T08:14:57;95530.13;;;1.55;100.00
6090;BME280;3073;42.660;23.316;2023-02-12T08:17:24;95528.47;;;1.14;100.00
6090;BME280;3073;42.660;23.316;2023-02-12T08:19:51;95535.75;;;1.41;100.00
6090;BME280;3073;42.660;23.316;2023-02-12T08:22:18;95530.25;;;1.37;100.00
6090;BME280;3073;42.660;23.316;2023-02-12T08:24:46;95535.72;;;1.17;100.00
6090;BME280;3073;42.660;23.316;2023-02-12T08:27:13;95542.69;;;0.97;100.00
6090;BME280;3073;42.660;23.316;2023-02-12T08:29:41;95545.50;;;0.94;100.00
6090;BME280;3073;42.660;23.316;2023-02-12T08:32:08;95547.72;;;0.97;100.00
6090;BME280;3073;42.660;23.316;2023-02-12T08:34:38;95553.59;;;1.14;100.00
6090;BME280;3073;42.660;23.316;2023-02-12T08:37:05;95551.63;;;0.91;100.00
6090;BME280;3073;42.660;23.316;2023-02-12T08:39:32;95552.09;;;0.95;100.00
6090;BME280;3073;42.660;23.316;2023-02-12T08:41:59;95558.16;;;1.10;100.00
6090;BME280;3073;42.660;23.316;2023-02-12T08:44:27;95564.09;;;1.09;100.00
6090;BME280;3073;42.660;23.316;2023-02-12T08:46:55;95570.50;;;1.03;100.00
6090;BME280;3073;42.660;23.316;2023-02-12T08:49:24;95573.22;;;1.10;100.00
6090;BME280;3073;42.660;23.316;2023-02-12T08:51:53;95570.56;;;1.12;100.00
6090;BME280;3073;42.660;23.316;2023-02-12T08:54:22;95574.09;;;1.01;100.00
6090;BME280;3073;42.660;23.316;2023-02-12T08:56:53;95569.25;;;0.99;100.00
6090;BME280;3073;42.660;23.316;2023-02-12T08:59:22;95570.25;;;1.15;100.00
6090;BME280;3073;42.660;23.316;2023-02-12T09:01:50;95573.41;;;1.25;100.00
6090;BME280;3073;42.660;23.316;2023-02-12T09:04:20;95576.41;;;1.28;100.00
6090;BME280;3073;42.660;23.316;2023-02-12T09:06:48;95583.47;;;1.17;100.00
6090;BME280;3073;42.660;23.316;2023-02-12T09:09:15;95589.66;;;1.38;100.00
6090;BME280;3073;42.660;23.316;2023-02-12T09:11:42;95580.16;;;1.16;100.00
6090;BME280;3073;42.660;23.316;2023-02-12T09:14:11;95583.66;;;0.97;100.00
6090;BME280;3073;42.660;23.316;2023-02-12T09:16:38;95595.25;;;1.24;100.00
6090;BME280;3073;42.660;23.316;2023-02-12T09:19:06;95594.63;;;1.30;100.00
6090;BME280;3073;42.660;23.316;2023-02-12T09:21:34;95599.78;;;1.21;100.00
6090;BME280;3073;42.660;23.316;2023-02-12T09:24:01;95595.13;;;1.26;100.00
6090;BME280;3073;42.660;23.316;2023-02-12T09:26:29;95591.31;;;1.22;100.00
6090;BME280;3073;42.660;23.316;2023-02-12T09:28:56;95597.00;;;1.32;100.00
6090;BME280;3073;42.660;23.316;2023-02-12T09:31:25;95584.97;;;1.43;100.00
6090;BME280;3073;42.660;23.316;2023-02-12T09:33:54;95592.44;;;1.27;100.00
6090;BME280;3073;42.660;23.316;2023-02-12T09:36:23;95590.84;;;1.18;100.00
6090;BME280;3073;42.660;23.316;2023-02-12T09:38:51;95607.69;;;1.26;100.00
6090;BME280;3073;42.660;23.316;2023-02-12T09:41:32;95608.41;;;1.10;100.00
6090;BME280;3073;42.660;23.316;2023-02-12T09:44:05;95602.09;;;1.40;100.00
6090;BME280;3073;42.660;23.316;2023-02-12T09:46:39;95607.50;;;1.27;100.00
6090;BME280;3073;42.660;23.316;2023-02-12T09:49:09;95601.56;;;1.28;100.00
6090;BME280;3073;42.660;23.316;2023-02-12T09:51:38;95607.69;;;1.26;100.00
6090;BME280;3073;42.660;23.316;2023-02-12T09:54:13;95614.72;;;1.22;100.00
6090;BME280;3073;42.660;23.316;2023-02-12T09:56:45;95617.34;;;1.54;100.00
6090;BME280;3073;42.660;23.316;2023-02-12T09:59:20;95618.28;;;1.53;100.00
6090;BME280;3073;42.660;23.316;2023-02-12T10:01:54;95603.19;;;1.53;100.00
6090;BME280;3073;42.660;23.316;2023-02-12T10:04:22;95601.00;;;1.50;100.00
6090;BME280;3073;42.660;23.316;2023-02-12T10:07:00;95602.44;;;1.61;100.00
6090;BME280;3073;42.660;23.316;2023-02-12T10:09:47;95610.88;;;1.44;100.00
6090;BME280;3073;42.660;23.316;2023-02-12T10:12:24;95611.03;;;1.50;100.00
6090;BME280;3073;42.660;23.316;2023-02-12T10:15:08;95611.09;;;1.59;100.00
6090;BME280;3073;42.660;23.316;2023-02-12T10:17:41;95623.22;;;1.63;100.00
6090;BME280;3073;42.660;23.316;2023-02-12T10:20:24;95621.25;;;2.15;100.00
6090;BME280;3073;42.660;23.316;2023-02-12T10:23:05;95614.63;;;2.14;100.00
6090;BME280;3073;42.660;23.316;2023-02-12T10:25:43;95600.63;;;2.44;100.00
6090;BME280;3073;42.660;23.316;2023-02-12T10:28:14;95604.22;;;2.82;100.00
6090;BME280;3073;42.660;23.316;2023-02-12T10:30:45;95605.97;;;3.28;100.00
6090;BME280;3073;42.660;23.316;2023-02-12T10:33:17;95614.59;;;2.87;100.00
6090;BME280;3073;42.660;23.316;2023-02-12T10:35:49;95619.31;;;2.74;100.00
6090;BME280;3073;42.660;23.316;2023-02-12T10:38:20;95621.09;;;2.73;100.00
6090;BME280;3073;42.660;23.316;2023-02-12T10:40:49;95613.06;;;2.45;100.00
6090;BME280;3073;42.660;23.316;2023-02-12T10:43:16;95616.38;;;2.22;100.00
6090;BME280;3073;42.660;23.316;2023-02-12T10:45:43;95617.78;;;2.40;100.00
6090;BME280;3073;42.660;23.316;2023-02-12T10:48:13;95614.47;;;2.48;100.00
6090;BME280;3073;42.660;23.316;2023-02-12T10:50:51;95620.63;;;2.21;100.00
6090;BME280;3073;42.660;23.316;2023-02-12T10:53:23;95620.94;;;2.18;100.00
6090;BME280;3073;42.660;23.316;2023-02-12T10:56:06;95621.59;;;2.20;100.00
6090;BME280;3073;42.660;23.316;2023-02-12T10:58:36;95614.66;;;2.22;100.00
6090;BME280;3073;42.660;23.316;2023-02-12T11:01:11;95623.56;;;2.81;100.00
6090;BME280;3073;42.660;23.316;2023-02-12T11:03:41;95623.41;;;2.91;100.00
6090;BME280;3073;42.660;23.316;2023-02-12T11:06:13;95617.03;;;3.19;100.00
6090;BME280;3073;42.660;23.316;2023-02-12T11:08:41;95619.88;;;3.16;100.00
6090;BME280;3073;42.660;23.316;2023-02-12T11:11:12;95624.19;;;2.91;100.00
6090;BME280;3073;42.660;23.316;2023-02-12T11:13:44;95627.34;;;2.93;100.00
6090;BME280;3073;42.660;23.316;2023-02-12T11:16:13;95625.91;;;2.91;100.00
6090;BME280;3073;42.660;23.316;2023-02-12T11:18:42;95621.19;;;2.88;100.00
6090;BME280;3073;42.660;23.316;2023-02-12T11:21:09;95617.78;;;2.48;100.00
6090;BME280;3073;42.660;23.316;2023-02-12T11:23:38;95618.97;;;3.01;100.00
6090;BME280;3073;42.660;23.316;2023-02-12T11:29:01;95614.50;;;3.58;100.00
6090;BME280;3073;42.660;23.316;2023-02-12T11:31:30;95619.09;;;3.85;100.00
6090;BME280;3073;42.660;23.316;2023-02-12T11:34:12;95614.88;;;3.78;100.00
6090;BME280;3073;42.660;23.316;2023-02-12T11:36:41;95609.84;;;3.47;100.00
6090;BME280;3073;42.660;23.316;2023-02-12T11:39:17;95609.88;;;3.31;100.00
6090;BME280;3073;42.660;23.316;2023-02-12T11:41:50;95614.25;;;3.06;100.00
6090;BME280;3073;42.660;23.316;2023-02-12T11:44:22;95612.25;;;3.32;100.00
6090;BME280;3073;42.660;23.316;2023-02-12T11:46:53;95617.19;;;3.87;100.00
6090;BME280;3073;42.660;23.316;2023-02-12T11:49:23;95611.38;;;3.87;100.00
6090;BME280;3073;42.660;23.316;2023-02-12T11:51:51;95607.78;;;4.27;100.00
6090;BME280;3073;42.660;23.316;2023-02-12T11:54:21;95610.94;;;4.06;100.00
6090;BME280;3073;42.660;23.316;2023-02-12T11:56:49;95612.19;;;4.47;100.00
6090;BME280;3073;42.660;23.316;2023-02-12T11:59:35;95614.66;;;3.87;100.00
6090;BME280;3073;42.660;23.316;2023-02-12T12:02:17;95615.91;;;3.60;100.00
6090;BME280;3073;42.660;23.316;2023-02-12T12:04:49;95618.50;;;3.44;100.00
6090;BME280;3073;42.660;23.316;2023-02-12T12:07:20;95618.63;;;3.59;100.00
6090;BME280;3073;42.660;23.316;2023-02-12T12:09:55;95618.06;;;3.72;100.00
6090;BME280;3073;42.660;23.316;2023-02-12T12:12:28;95610.50;;;3.94;100.00
6090;BME280;3073;42.660;23.316;2023-02-12T12:15:03;95615.88;;;3.69;100.00
6090;BME280;3073;42.660;23.316;2023-02-12T12:17:51;95618.16;;;4.09;100.00
6090;BME280;3073;42.660;23.316;2023-02-12T12:20:42;95619.75;;;4.10;100.00
6090;BME280;3073;42.660;23.316;2023-02-12T12:23:13;95617.81;;;4.12;100.00
6090;BME280;3073;42.660;23.316;2023-02-12T12:25:45;95621.03;;;4.06;100.00
6090;BME280;3073;42.660;23.316;2023-02-12T12:28:24;95625.28;;;4.28;100.00
6090;BME280;3073;42.660;23.316;2023-02-12T12:31:06;95627.97;;;4.04;100.00
6090;BME280;3073;42.660;23.316;2023-02-12T12:33:38;95623.72;;;4.04;100.00
6090;BME280;3073;42.660;23.316;2023-02-12T12:39:25;95626.91;;;4.44;100.00
6090;BME280;3073;42.660;23.316;2023-02-12T12:42:16;95628.59;;;4.51;100.00
6090;BME280;3073;42.660;23.316;2023-02-12T12:45:02;95637.00;;;4.44;100.00
6090;BME280;3073;42.660;23.316;2023-02-12T12:47:43;95633.16;;;4.33;100.00
6090;BME280;3073;42.660;23.316;2023-02-12T12:50:23;95636.72;;;4.61;100.00
6090;BME280;3073;42.660;23.316;2023-02-12T12:53:01;95634.28;;;4.53;100.00
6090;BME280;3073;42.660;23.316;2023-02-12T12:55:43;95642.47;;;4.33;100.00
6090;BME280;3073;42.660;23.316;2023-02-12T12:58:17;95640.19;;;3.92;100.00
6090;BME280;3073;42.660;23.316;2023-02-12T13:00:59;95641.91;;;4.00;100.00
6090;BME280;3073;42.660;23.316;2023-02-12T13:03:59;95641.56;;;3.72;100.00
6090;BME280;3073;42.660;23.316;2023-02-12T13:06:45;95645.09;;;3.08;100.00
6090;BME280;3073;42.660;23.316;2023-02-12T13:09:38;95644.44;;;3.22;100.00
6090;BME280;3073;42.660;23.316;2023-02-12T13:12:31;95650.88;;;3.25;100.00
6090;BME280;3073;42.660;23.316;2023-02-12T13:15:02;95650.56;;;3.36;100.00
6090;BME280;3073;42.660;23.316;2023-02-12T13:17:38;95654.59;;;3.53;100.00
6090;BME280;3073;42.660;23.316;2023-02-12T13:20:17;95655.50;;;3.60;100.00
6090;BME280;3073;42.660;23.316;2023-02-12T13:22:54;95659.97;;;3.50;100.00
6090;BME280;3073;42.660;23.316;2023-02-12T13:25:27;95663.03;;;3.21;100.00
6090;BME280;3073;42.660;23.316;2023-02-12T13:27:58;95654.81;;;3.27;100.00
6090;BME280;3073;42.660;23.316;2023-02-12T13:30:29;95662.38;;;3.35;100.00
6090;BME280;3073;42.660;23.316;2023-02-12T13:33:04;95661.91;;;3.24;100.00
6090;BME280;3073;42.660;23.316;2023-02-12T13:35:36;95661.50;;;3.12;100.00
6090;BME280;3073;42.660;23.316;2023-02-12T13:38:08;95654.91;;;3.03;100.00
6090;BME280;3073;42.660;23.316;2023-02-12T13:40:41;95658.50;;;3.00;100.00
6090;BME280;3073;42.660;23.316;2023-02-12T13:43:20;95657.84;;;3.15;100.00
6090;BME280;3073;42.660;23.316;2023-02-12T13:45:57;95664.56;;;3.46;100.00